sensor_id;sensor_type;location;lat;lon;timestamp;P1;durP1;ratioP1;P2;durP2;ratioP2
49488;SDS011;35382;51.484;11.476;2024-02-14T00:01:02;13.95;;;8.35;;
49488;SDS011;35382;51.484;11.476;2024-02-14T00:03:29;14.85;;;9.93;;
49488;SDS011;35382;51.484;11.476;2024-02-14T00:05:54;13.27;;;8.68;;
49488;SDS011;35382;51.484;11.476;2024-02-14T00:08:19;12.80;;;7.72;;
49488;SDS011;35382;51.484;11.476;2024-02-14T00:10:45;15.07;;;8.35;;
49488;SDS011;35382;51.484;11.476;2024-02-14T00:13:10;15.68;;;9.15;;
49488;SDS011;35382;51.484;11.476;2024-02-14T00:15:36;12.52;;;8.20;;
49488;SDS011;35382;51.484;11.476;2024-02-14T00:18:01;13.18;;;8.07;;
49488;SDS011;35382;51.484;11.476;2024-02-14T00:20:26;15.00;;;9.02;;
49488;SDS011;35382;51.484;11.476;2024-02-14T00:22:52;15.55;;;9.00;;
49488;SDS011;35382;51.484;11.476;2024-02-14T00:25:17;13.98;;;8.40;;
49488;SDS011;35382;51.484;11.476;2024-02-14T00:27:42;15.07;;;9.07;;
49488;SDS011;35382;51.484;11.476;2024-02-14T00:30:08;15.18;;;8.52;;
49488;SDS011;35382;51.484;11.476;2024-02-14T00:32:33;18.15;;;9.25;;
49488;SDS011;35382;51.484;11.476;2024-02-14T00:34:59;15.18;;;9.15;;
49488;SDS011;35382;51.484;11.476;2024-02-14T00:37:24;12.75;;;8.77;;
49488;SDS011;35382;51.484;11.476;2024-02-14T00:39:49;15.65;;;8.98;;
49488;SDS011;35382;51.484;11.476;2024-02-14T00:42:15;14.40;;;8.32;;
49488;SDS011;35382;51.484;11.476;2024-02-14T00:44:40;12.63;;;8.02;;
49488;SDS011;35382;51.484;11.476;2024-02-14T00:47:06;12.70;;;8.60;;
49488;SDS011;35382;51.484;11.476;2024-02-14T00:49:34;14.43;;;9.13;;
49488;SDS011;35382;51.484;11.476;2024-02-14T00:51:59;16.67;;;9.15;;
49488;SDS011;35382;51.484;11.476;2024-02-14T00:54:25;15.45;;;8.98;;
49488;SDS011;35382;51.484;11.476;2024-02-14T00:56:50;17.23;;;10.10;;
49488;SDS011;35382;51.484;11.476;2024-02-14T00:59:15;18.33;;;10.20;;
49488;SDS011;35382;51.484;11.476;2024-02-14T01:01:41;15.10;;;10.10;;
49488;SDS011;35382;51.484;11.476;2024-02-14T01:04:06;13.02;;;8.65;;
49488;SDS011;35382;51.484;11.476;2024-02-14T01:06:34;15.85;;;8.70;;
49488;SDS011;35382;51.484;11.476;2024-02-14T01:08:59;12.02;;;7.45;;
49488;SDS011;35382;51.484;11.476;2024-02-14T01:11:24;14.98;;;9.05;;
49488;SDS011;35382;51.484;11.476;2024-02-14T01:13:50;14.48;;;9.73;;
49488;SDS011;35382;51.484;11.476;2024-02-14T01:16:15;13.77;;;8.40;;
49488;SDS011;35382;51.484;11.476;2024-02-14T01:18:43;13.45;;;7.88;;
49488;SDS011;35382;51.484;11.476;2024-02-14T01:21:08;13.20;;;7.85;;
49488;SDS011;35382;51.484;11.476;2024-02-14T01:23:34;14.25;;;8.18;;
49488;SDS011;35382;51.484;11.476;2024-02-14T01:25:59;12.55;;;7.93;;
49488;SDS011;35382;51.484;11.476;2024-02-14T01:28:25;13.27;;;7.82;;
49488;SDS011;35382;51.484;11.476;2024-02-14T01:30:50;13.05;;;7.35;;
49488;SDS011;35382;51.484;11.476;2024-02-14T01:33:16;13.05;;;7.82;;
49488;SDS011;35382;51.484;11.476;2024-02-14T01:35:41;11.68;;;7.03;;
49488;SDS011;35382;51.484;11.476;2024-02-14T01:38:07;12.73;;;7.45;;
49488;SDS011;35382;51.484;11.476;2024-02-14T01:40:32;11.93;;;7.03;;
49488;SDS011;35382;51.484;11.476;2024-02-14T01:42:57;13.95;;;7.63;;
49488;SDS011;35382;51.484;11.476;2024-02-14T01:45:23;15.13;;;6.88;;
49488;SDS011;35382;51.484;11.476;2024-02-14T01:47:48;11.88;;;6.38;;
49488;SDS011;35382;51.484;11.476;2024-02-14T01:50:15;9.63;;;6.00;;
49488;SDS011;35382;51.484;11.476;2024-02-14T01:52:40;10.90;;;5.85;;
49488;SDS011;35382;51.484;11.476;2024-02-14T01:55:06;13.27;;;6.18;;
49488;SDS011;35382;51.484;11.476;2024-02-14T01:57:33;10.52;;;6.50;;
49488;SDS011;35382;51.484;11.476;2024-02-14T01:59:59;13.40;;;7.43;;
49488;SDS011;35382;51.484;11.476;2024-02-14T02:02:37;10.57;;;6.72;;
49488;SDS011;35382;51.484;11.476;2024-02-14T02:05:05;12.48;;;5.93;;
49488;SDS011;35382;51.484;11.476;2024-02-14T02:07:32;9.88;;;5.93;;
49488;SDS011;35382;51.484;11.476;2024-02-14T02:09:58;11.32;;;6.20;;
49488;SDS011;35382;51.484;11.476;2024-02-14T02:12:23;9.68;;;5.88;;
49488;SDS011;35382;51.484;11.476;2024-02-14T02:14:48;9.82;;;5.50;;
49488;SDS011;35382;51.484;11.476;2024-02-14T02:17:14;10.82;;;6.18;;
49488;SDS011;35382;51.484;11.476;2024-02-14T02:19:39;10.68;;;6.45;;
49488;SDS011;35382;51.484;11.476;2024-02-14T02:22:04;12.82;;;5.90;;
49488;SDS011;35382;51.484;11.476;2024-02-14T02:24:30;10.98;;;6.25;;
49488;SDS011;35382;51.484;11.476;2024-02-14T02:26:55;12.25;;;6.22;;
49488;SDS011;35382;51.484;11.476;2024-02-14T02:29:21;10.23;;;5.95;;
49488;SDS011;35382;51.484;11.476;2024-02-14T02:31:46;10.73;;;5.68;;
49488;SDS011;35382;51.484;11.476;2024-02-14T02:34:12;9.35;;;5.95;;
49488;SDS011;35382;51.484;11.476;2024-02-14T02:36:37;11.98;;;6.25;;
49488;SDS011;35382;51.484;11.476;2024-02-14T02:39:02;10.73;;;5.97;;
49488;SDS011;35382;51.484;11.476;2024-02-14T02:41:28;11.38;;;5.88;;
49488;SDS011;35382;51.484;11.476;2024-02-14T02:43:53;9.30;;;5.53;;
49488;SDS011;35382;51.484;11.476;2024-02-14T02:46:18;10.70;;;6.20;;
49488;SDS011;35382;51.484;11.476;2024-02-14T02:48:44;10.95;;;5.85;;
49488;SDS011;35382;51.484;11.476;2024-02-14T02:51:09;16.67;;;7.30;;
49488;SDS011;35382;51.484;11.476;2024-02-14T02:53:34;10.65;;;6.25;;
49488;SDS011;35382;51.484;11.476;2024-02-14T02:56:00;10.50;;;6.85;;
49488;SDS011;35382;51.484;11.476;2024-02-14T02:58:25;9.95;;;6.25;;
49488;SDS011;35382;51.484;11.476;2024-02-14T03:00:50;10.55;;;6.47;;
49488;SDS011;35382;51.484;11.476;2024-02-14T03:03:16;11.65;;;6.22;;
49488;SDS011;35382;51.484;11.476;2024-02-14T03:05:41;8.60;;;6.13;;
49488;SDS011;35382;51.484;11.476;2024-02-14T03:08:07;11.20;;;6.55;;
49488;SDS011;35382;51.484;11.476;2024-02-14T03:10:32;10.98;;;6.72;;
49488;SDS011;35382;51.484;11.476;2024-02-14T03:12:58;11.07;;;6.22;;
49488;SDS011;35382;51.484;11.476;2024-02-14T03:15:23;12.32;;;6.45;;
49488;SDS011;35382;51.484;11.476;2024-02-14T03:17:49;11.35;;;6.15;;
49488;SDS011;35382;51.484;11.476;2024-02-14T03:20:14;10.82;;;6.03;;
49488;SDS011;35382;51.484;11.476;2024-02-14T03:22:42;13.68;;;6.18;;
49488;SDS011;35382;51.484;11.476;2024-02-14T03:25:08;11.70;;;5.90;;
49488;SDS011;35382;51.484;11.476;2024-02-14T03:27:33;10.55;;;6.18;;
49488;SDS011;35382;51.484;11.476;2024-02-14T03:29:59;10.93;;;6.22;;
49488;SDS011;35382;51.484;11.476;2024-02-14T03:32:24;9.38;;;6.15;;
49488;SDS011;35382;51.484;11.476;2024-02-14T03:34:49;9.57;;;5.28;;
49488;SDS011;35382;51.484;11.476;2024-02-14T03:37:15;8.45;;;5.07;;
49488;SDS011;35382;51.484;11.476;2024-02-14T03:39:40;7.95;;;5.30;;
49488;SDS011;35382;51.484;11.476;2024-02-14T03:42:05;9.38;;;5.65;;
49488;SDS011;35382;51.484;11.476;2024-02-14T03:44:31;10.68;;;4.97;;
49488;SDS011;35382;51.484;11.476;2024-02-14T03:46:56;7.72;;;3.83;;
49488;SDS011;35382;51.484;11.476;2024-02-14T03:49:21;6.38;;;4.03;;
49488;SDS011;35382;51.484;11.476;2024-02-14T03:51:47;7.15;;;3.30;;
49488;SDS011;35382;51.484;11.476;2024-02-14T03:54:12;7.80;;;3.53;;
49488;SDS011;35382;51.484;11.476;2024-02-14T03:56:37;6.70;;;3.65;;
49488;SDS011;35382;51.484;11.476;2024-02-14T03:59:03;6.50;;;3.10;;
49488;SDS011;35382;51.484;11.476;2024-02-14T04:01:28;7.05;;;2.95;;
49488;SDS011;35382;51.484;11.476;2024-02-14T04:03:54;6.07;;;2.65;;
49488;SDS011;35382;51.484;11.476;2024-02-14T04:06:19;5.75;;;2.67;;
49488;SDS011;35382;51.484;11.476;2024-02-14T04:08:44;8.73;;;2.80;;
49488;SDS011;35382;51.484;11.476;2024-02-14T04:11:10;5.07;;;2.60;;
49488;SDS011;35382;51.484;11.476;2024-02-14T04:13:35;5.40;;;2.75;;
49488;SDS011;35382;51.484;11.476;2024-02-14T04:16:01;7.07;;;2.83;;
49488;SDS011;35382;51.484;11.476;2024-02-14T04:18:30;5.90;;;2.70;;
49488;SDS011;35382;51.484;11.476;2024-02-14T04:20:56;6.03;;;3.03;;
49488;SDS011;35382;51.484;11.476;2024-02-14T04:23:21;6.38;;;3.13;;
49488;SDS011;35382;51.484;11.476;2024-02-14T04:25:46;5.47;;;3.17;;
49488;SDS011;35382;51.484;11.476;2024-02-14T04:28:12;6.43;;;2.88;;
49488;SDS011;35382;51.484;11.476;2024-02-14T04:30:37;8.20;;;2.50;;
49488;SDS011;35382;51.484;11.476;2024-02-14T04:33:03;5.93;;;2.90;;
49488;SDS011;35382;51.484;11.476;2024-02-14T04:35:28;6.45;;;3.00;;
49488;SDS011;35382;51.484;11.476;2024-02-14T04:37:53;4.93;;;2.40;;
49488;SDS011;35382;51.484;11.476;2024-02-14T04:40:19;6.07;;;2.63;;
49488;SDS011;35382;51.484;11.476;2024-02-14T04:42:44;6.95;;;2.97;;
49488;SDS011;35382;51.484;11.476;2024-02-14T04:45:09;6.20;;;2.60;;
49488;SDS011;35382;51.484;11.476;2024-02-14T04:47:35;5.50;;;2.20;;
49488;SDS011;35382;51.484;11.476;2024-02-14T04:50:01;5.18;;;2.30;;
49488;SDS011;35382;51.484;11.476;2024-02-14T04:52:26;7.15;;;2.28;;
49488;SDS011;35382;51.484;11.476;2024-02-14T04:54:52;6.53;;;2.38;;
49488;SDS011;35382;51.484;11.476;2024-02-14T04:57:17;6.25;;;2.70;;
49488;SDS011;35382;51.484;11.476;2024-02-14T05:02:10;9.57;;;2.72;;
49488;SDS011;35382;51.484;11.476;2024-02-14T05:04:36;7.18;;;3.10;;
49488;SDS011;35382;51.484;11.476;2024-02-14T05:07:01;8.85;;;3.20;;
49488;SDS011;35382;51.484;11.476;2024-02-14T05:09:26;6.28;;;2.67;;
49488;SDS011;35382;51.484;11.476;2024-02-14T05:11:52;5.88;;;2.53;;
49488;SDS011;35382;51.484;11.476;2024-02-14T05:14:17;7.43;;;2.40;;
49488;SDS011;35382;51.484;11.476;2024-02-14T05:16:42;5.47;;;2.10;;
49488;SDS011;35382;51.484;11.476;2024-02-14T05:19:08;5.70;;;2.25;;
49488;SDS011;35382;51.484;11.476;2024-02-14T05:21:33;5.10;;;1.83;;
49488;SDS011;35382;51.484;11.476;2024-02-14T05:23:58;4.95;;;1.90;;
49488;SDS011;35382;51.484;11.476;2024-02-14T05:26:24;3.70;;;1.77;;
49488;SDS011;35382;51.484;11.476;2024-02-14T05:28:49;6.05;;;2.03;;
49488;SDS011;35382;51.484;11.476;2024-02-14T05:31:14;7.53;;;3.55;;
49488;SDS011;35382;51.484;11.476;2024-02-14T05:33:40;5.28;;;2.25;;
49488;SDS011;35382;51.484;11.476;2024-02-14T05:36:05;5.70;;;2.08;;
49488;SDS011;35382;51.484;11.476;2024-02-14T05:38:31;5.32;;;2.10;;
49488;SDS011;35382;51.484;11.476;2024-02-14T05:40:57;4.63;;;2.30;;
49488;SDS011;35382;51.484;11.476;2024-02-14T05:43:22;6.43;;;2.45;;
49488;SDS011;35382;51.484;11.476;2024-02-14T05:45:47;4.65;;;2.30;;
49488;SDS011;35382;51.484;11.476;2024-02-14T05:48:13;5.20;;;2.50;;
49488;SDS011;35382;51.484;11.476;2024-02-14T05:50:38;5.63;;;2.10;;
49488;SDS011;35382;51.484;11.476;2024-02-14T05:53:04;5.65;;;2.50;;
49488;SDS011;35382;51.484;11.476;2024-02-14T05:55:29;6.78;;;2.60;;
49488;SDS011;35382;51.484;11.476;2024-02-14T05:57:54;7.72;;;2.72;;
49488;SDS011;35382;51.484;11.476;2024-02-14T06:00:20;5.78;;;2.53;;
49488;SDS011;35382;51.484;11.476;2024-02-14T06:02:46;5.53;;;2.80;;
49488;SDS011;35382;51.484;11.476;2024-02-14T06:05:12;7.40;;;2.50;;
49488;SDS011;35382;51.484;11.476;2024-02-14T06:07:38;5.95;;;2.92;;
49488;SDS011;35382;51.484;11.476;2024-02-14T06:10:03;7.00;;;2.28;;
49488;SDS011;35382;51.484;11.476;2024-02-14T06:12:29;7.63;;;3.22;;
49488;SDS011;35382;51.484;11.476;2024-02-14T06:14:55;5.47;;;2.65;;
49488;SDS011;35382;51.484;11.476;2024-02-14T06:17:23;6.40;;;2.72;;
49488;SDS011;35382;51.484;11.476;2024-02-14T06:19:49;6.65;;;2.70;;
49488;SDS011;35382;51.484;11.476;2024-02-14T06:22:14;5.40;;;2.50;;
49488;SDS011;35382;51.484;11.476;2024-02-14T06:24:39;6.43;;;2.47;;
49488;SDS011;35382;51.484;11.476;2024-02-14T06:27:05;6.07;;;2.47;;
49488;SDS011;35382;51.484;11.476;2024-02-14T06:29:31;4.50;;;2.10;;
49488;SDS011;35382;51.484;11.476;2024-02-14T06:31:56;4.57;;;2.15;;
49488;SDS011;35382;51.484;11.476;2024-02-14T06:34:22;5.05;;;2.15;;
49488;SDS011;35382;51.484;11.476;2024-02-14T06:36:47;6.57;;;2.30;;
49488;SDS011;35382;51.484;11.476;2024-02-14T06:39:12;3.72;;;1.80;;
49488;SDS011;35382;51.484;11.476;2024-02-14T06:41:38;4.72;;;2.17;;
49488;SDS011;35382;51.484;11.476;2024-02-14T06:44:06;5.45;;;2.08;;
49488;SDS011;35382;51.484;11.476;2024-02-14T06:46:32;5.82;;;2.47;;
49488;SDS011;35382;51.484;11.476;2024-02-14T06:48:57;4.03;;;2.13;;
49488;SDS011;35382;51.484;11.476;2024-02-14T06:51:22;6.63;;;2.20;;
49488;SDS011;35382;51.484;11.476;2024-02-14T06:53:49;5.20;;;2.28;;
49488;SDS011;35382;51.484;11.476;2024-02-14T06:56:15;6.50;;;2.20;;
49488;SDS011;35382;51.484;11.476;2024-02-14T06:58:40;4.30;;;1.83;;
49488;SDS011;35382;51.484;11.476;2024-02-14T07:01:06;4.32;;;2.00;;
49488;SDS011;35382;51.484;11.476;2024-02-14T07:03:31;4.13;;;2.30;;
49488;SDS011;35382;51.484;11.476;2024-02-14T07:05:56;5.72;;;3.20;;
49488;SDS011;35382;51.484;11.476;2024-02-14T07:08:22;7.03;;;1.98;;
49488;SDS011;35382;51.484;11.476;2024-02-14T07:10:47;7.10;;;2.17;;
49488;SDS011;35382;51.484;11.476;2024-02-14T07:13:13;4.35;;;2.15;;
49488;SDS011;35382;51.484;11.476;2024-02-14T07:15:38;2.97;;;1.70;;
49488;SDS011;35382;51.484;11.476;2024-02-14T07:18:03;4.20;;;2.15;;
49488;SDS011;35382;51.484;11.476;2024-02-14T07:20:29;4.43;;;1.80;;
49488;SDS011;35382;51.484;11.476;2024-02-14T07:22:54;4.00;;;1.80;;
49488;SDS011;35382;51.484;11.476;2024-02-14T07:25:20;6.03;;;2.10;;
49488;SDS011;35382;51.484;11.476;2024-02-14T07:27:45;5.25;;;2.00;;
49488;SDS011;35382;51.484;11.476;2024-02-14T07:30:11;5.97;;;2.25;;
49488;SDS011;35382;51.484;11.476;2024-02-14T07:32:37;4.43;;;1.92;;
49488;SDS011;35382;51.484;11.476;2024-02-14T07:35:02;3.70;;;1.98;;
49488;SDS011;35382;51.484;11.476;2024-02-14T07:37:28;4.65;;;2.47;;
49488;SDS011;35382;51.484;11.476;2024-02-14T07:39:53;4.97;;;1.88;;
49488;SDS011;35382;51.484;11.476;2024-02-14T07:42:18;6.80;;;2.10;;
49488;SDS011;35382;51.484;11.476;2024-02-14T07:44:44;4.10;;;1.95;;
49488;SDS011;35382;51.484;11.476;2024-02-14T07:47:09;7.05;;;2.15;;
49488;SDS011;35382;51.484;11.476;2024-02-14T07:49:34;4.70;;;2.38;;
49488;SDS011;35382;51.484;11.476;2024-02-14T07:52:00;8.30;;;2.40;;
49488;SDS011;35382;51.484;11.476;2024-02-14T07:54:25;5.50;;;2.42;;
49488;SDS011;35382;51.484;11.476;2024-02-14T07:56:53;6.78;;;2.45;;
49488;SDS011;35382;51.484;11.476;2024-02-14T07:59:19;5.57;;;2.28;;
49488;SDS011;35382;51.484;11.476;2024-02-14T08:01:44;6.07;;;2.40;;
49488;SDS011;35382;51.484;11.476;2024-02-14T08:04:09;6.00;;;2.60;;
49488;SDS011;35382;51.484;11.476;2024-02-14T08:06:35;5.20;;;2.35;;
49488;SDS011;35382;51.484;11.476;2024-02-14T08:09:00;5.88;;;2.75;;
49488;SDS011;35382;51.484;11.476;2024-02-14T08:11:25;5.57;;;2.42;;
49488;SDS011;35382;51.484;11.476;2024-02-14T08:13:51;7.60;;;2.88;;
49488;SDS011;35382;51.484;11.476;2024-02-14T08:16:16;5.30;;;2.40;;
49488;SDS011;35382;51.484;11.476;2024-02-14T08:18:42;6.70;;;2.65;;
49488;SDS011;35382;51.484;11.476;2024-02-14T08:21:07;6.25;;;2.40;;
49488;SDS011;35382;51.484;11.476;2024-02-14T08:23:32;6.65;;;2.75;;
49488;SDS011;35382;51.484;11.476;2024-02-14T08:25:58;6.55;;;2.70;;
49488;SDS011;35382;51.484;11.476;2024-02-14T08:28:23;6.40;;;2.75;;
49488;SDS011;35382;51.484;11.476;2024-02-14T08:30:48;14.07;;;3.35;;
49488;SDS011;35382;51.484;11.476;2024-02-14T08:33:14;6.35;;;2.78;;
49488;SDS011;35382;51.484;11.476;2024-02-14T08:35:39;8.30;;;2.80;;
49488;SDS011;35382;51.484;11.476;2024-02-14T08:38:05;6.00;;;3.25;;
49488;SDS011;35382;51.484;11.476;2024-02-14T08:40:30;6.13;;;3.03;;
49488;SDS011;35382;51.484;11.476;2024-02-14T08:42:55;7.10;;;3.08;;
49488;SDS011;35382;51.484;11.476;2024-02-14T08:45:22;5.93;;;2.88;;
49488;SDS011;35382;51.484;11.476;2024-02-14T08:47:48;8.70;;;2.70;;
49488;SDS011;35382;51.484;11.476;2024-02-14T08:50:13;6.72;;;2.67;;
49488;SDS011;35382;51.484;11.476;2024-02-14T08:52:38;5.85;;;3.20;;
49488;SDS011;35382;51.484;11.476;2024-02-14T08:55:04;8.02;;;3.53;;
49488;SDS011;35382;51.484;11.476;2024-02-14T08:57:29;6.50;;;2.97;;
49488;SDS011;35382;51.484;11.476;2024-02-14T08:59:55;6.50;;;2.80;;
49488;SDS011;35382;51.484;11.476;2024-02-14T09:02:20;7.10;;;2.90;;
49488;SDS011;35382;51.484;11.476;2024-02-14T09:04:45;4.85;;;2.40;;
49488;SDS011;35382;51.484;11.476;2024-02-14T09:07:11;7.78;;;3.58;;
49488;SDS011;35382;51.484;11.476;2024-02-14T09:09:37;6.63;;;2.15;;
49488;SDS011;35382;51.484;11.476;2024-02-14T09:12:02;7.05;;;2.75;;
49488;SDS011;35382;51.484;11.476;2024-02-14T09:14:28;6.20;;;2.97;;
49488;SDS011;35382;51.484;11.476;2024-02-14T09:16:54;6.43;;;2.85;;
49488;SDS011;35382;51.484;11.476;2024-02-14T09:19:19;7.30;;;2.78;;
49488;SDS011;35382;51.484;11.476;2024-02-14T09:21:44;6.15;;;2.80;;
49488;SDS011;35382;51.484;11.476;2024-02-14T09:24:10;6.72;;;2.85;;
49488;SDS011;35382;51.484;11.476;2024-02-14T09:26:35;5.13;;;2.72;;
49488;SDS011;35382;51.484;11.476;2024-02-14T09:29:00;5.57;;;3.08;;
49488;SDS011;35382;51.484;11.476;2024-02-14T09:31:26;8.82;;;3.22;;
49488;SDS011;35382;51.484;11.476;2024-02-14T09:33:51;4.57;;;2.78;;
49488;SDS011;35382;51.484;11.476;2024-02-14T09:36:16;6.15;;;2.75;;
49488;SDS011;35382;51.484;11.476;2024-02-14T09:38:42;6.35;;;3.40;;
49488;SDS011;35382;51.484;11.476;2024-02-14T09:43:56;6.80;;;3.00;;
49488;SDS011;35382;51.484;11.476;2024-02-14T09:46:23;5.95;;;2.80;;
49488;SDS011;35382;51.484;11.476;2024-02-14T09:48:49;7.78;;;3.38;;
49488;SDS011;35382;51.484;11.476;2024-02-14T09:51:17;6.20;;;3.05;;
49488;SDS011;35382;51.484;11.476;2024-02-14T09:53:42;8.77;;;3.17;;
49488;SDS011;35382;51.484;11.476;2024-02-14T09:56:09;7.30;;;3.17;;
49488;SDS011;35382;51.484;11.476;2024-02-14T09:58:35;7.50;;;3.38;;
49488;SDS011;35382;51.484;11.476;2024-02-14T10:01:01;7.82;;;3.40;;
49488;SDS011;35382;51.484;11.476;2024-02-14T10:03:26;5.78;;;3.35;;
49488;SDS011;35382;51.484;11.476;2024-02-14T10:05:52;7.00;;;3.58;;
49488;SDS011;35382;51.484;11.476;2024-02-14T10:08:18;8.55;;;3.00;;
49488;SDS011;35382;51.484;11.476;2024-02-14T10:10:43;6.30;;;3.00;;
49488;SDS011;35382;51.484;11.476;2024-02-14T10:13:09;5.70;;;3.00;;
49488;SDS011;35382;51.484;11.476;2024-02-14T10:15:35;7.75;;;3.40;;
49488;SDS011;35382;51.484;11.476;2024-02-14T10:18:00;8.25;;;3.30;;
49488;SDS011;35382;51.484;11.476;2024-02-14T10:20:26;6.03;;;3.38;;
49488;SDS011;35382;51.484;11.476;2024-02-14T10:23:00;6.13;;;3.10;;
49488;SDS011;35382;51.484;11.476;2024-02-14T10:25:26;6.65;;;3.50;;
49488;SDS011;35382;51.484;11.476;2024-02-14T10:27:51;6.85;;;3.30;;
49488;SDS011;35382;51.484;11.476;2024-02-14T10:30:16;8.00;;;4.40;;
49488;SDS011;35382;51.484;11.476;2024-02-14T10:32:42;7.07;;;3.42;;
49488;SDS011;35382;51.484;11.476;2024-02-14T10:35:07;6.57;;;3.47;;
49488;SDS011;35382;51.484;11.476;2024-02-14T10:37:33;6.68;;;3.08;;
49488;SDS011;35382;51.484;11.476;2024-02-14T10:39:58;5.80;;;2.75;;
49488;SDS011;35382;51.484;11.476;2024-02-14T10:42:26;5.85;;;2.80;;
49488;SDS011;35382;51.484;11.476;2024-02-14T10:44:52;6.90;;;3.00;;
49488;SDS011;35382;51.484;11.476;2024-02-14T10:47:19;5.88;;;3.25;;
49488;SDS011;35382;51.484;11.476;2024-02-14T10:49:49;7.10;;;3.58;;
49488;SDS011;35382;51.484;11.476;2024-02-14T10:52:15;8.30;;;3.20;;
49488;SDS011;35382;51.484;11.476;2024-02-14T10:54:42;7.50;;;2.90;;
49488;SDS011;35382;51.484;11.476;2024-02-14T10:57:08;9.18;;;3.40;;
49488;SDS011;35382;51.484;11.476;2024-02-14T10:59:33;6.13;;;2.80;;
49488;SDS011;35382;51.484;11.476;2024-02-14T11:02:00;5.57;;;3.17;;
49488;SDS011;35382;51.484;11.476;2024-02-14T11:04:26;5.55;;;2.85;;
49488;SDS011;35382;51.484;11.476;2024-02-14T11:06:52;7.05;;;3.17;;
49488;SDS011;35382;51.484;11.476;2024-02-14T11:09:18;6.20;;;2.80;;
49488;SDS011;35382;51.484;11.476;2024-02-14T11:11:46;6.68;;;2.83;;
49488;SDS011;35382;51.484;11.476;2024-02-14T11:14:15;6.65;;;2.83;;
49488;SDS011;35382;51.484;11.476;2024-02-14T11:16:41;4.60;;;2.70;;
49488;SDS011;35382;51.484;11.476;2024-02-14T11:19:10;5.35;;;2.72;;
49488;SDS011;35382;51.484;11.476;2024-02-14T11:21:39;6.35;;;2.97;;
49488;SDS011;35382;51.484;11.476;2024-02-14T11:24:06;7.03;;;3.00;;
49488;SDS011;35382;51.484;11.476;2024-02-14T11:26:53;6.80;;;3.50;;
49488;SDS011;35382;51.484;11.476;2024-02-14T11:29:18;5.78;;;2.67;;
49488;SDS011;35382;51.484;11.476;2024-02-14T11:31:44;7.32;;;3.15;;
49488;SDS011;35382;51.484;11.476;2024-02-14T11:34:13;6.28;;;2.90;;
49488;SDS011;35382;51.484;11.476;2024-02-14T11:36:41;6.47;;;2.83;;
49488;SDS011;35382;51.484;11.476;2024-02-14T11:39:07;7.13;;;2.97;;
49488;SDS011;35382;51.484;11.476;2024-02-14T11:41:33;5.13;;;2.83;;
49488;SDS011;35382;51.484;11.476;2024-02-14T11:44:02;5.47;;;2.80;;
49488;SDS011;35382;51.484;11.476;2024-02-14T11:46:36;6.13;;;2.70;;
49488;SDS011;35382;51.484;11.476;2024-02-14T11:49:02;6.40;;;2.80;;
49488;SDS011;35382;51.484;11.476;2024-02-14T11:51:33;3.95;;;2.53;;
49488;SDS011;35382;51.484;11.476;2024-02-14T11:53:59;6.30;;;3.00;;
49488;SDS011;35382;51.484;11.476;2024-02-14T11:56:25;5.83;;;3.00;;
49488;SDS011;35382;51.484;11.476;2024-02-14T11:58:51;6.65;;;2.80;;
49488;SDS011;35382;51.484;11.476;2024-02-14T12:01:17;4.43;;;2.70;;
49488;SDS011;35382;51.484;11.476;2024-02-14T12:03:43;4.45;;;2.80;;
49488;SDS011;35382;51.484;11.476;2024-02-14T12:06:09;6.28;;;2.78;;
49488;SDS011;35382;51.484;11.476;2024-02-14T12:08:35;8.05;;;3.95;;
49488;SDS011;35382;51.484;11.476;2024-02-14T12:11:01;4.47;;;2.20;;
49488;SDS011;35382;51.484;11.476;2024-02-14T12:13:26;5.88;;;2.85;;
49488;SDS011;35382;51.484;11.476;2024-02-14T12:15:52;4.13;;;2.38;;
49488;SDS011;35382;51.484;11.476;2024-02-14T12:18:18;6.20;;;2.80;;
49488;SDS011;35382;51.484;11.476;2024-02-14T12:20:44;4.63;;;2.50;;
49488;SDS011;35382;51.484;11.476;2024-02-14T12:23:16;7.47;;;2.60;;
49488;SDS011;35382;51.484;11.476;2024-02-14T12:25:42;5.93;;;2.95;;
49488;SDS011;35382;51.484;11.476;2024-02-14T12:28:08;6.25;;;3.17;;
49488;SDS011;35382;51.484;11.476;2024-02-14T12:30:42;4.97;;;2.50;;
49488;SDS011;35382;51.484;11.476;2024-02-14T12:33:10;5.25;;;2.65;;
49488;SDS011;35382;51.484;11.476;2024-02-14T12:35:36;6.53;;;3.10;;
49488;SDS011;35382;51.484;11.476;2024-02-14T12:38:01;4.93;;;2.63;;
49488;SDS011;35382;51.484;11.476;2024-02-14T12:40:26;4.53;;;2.70;;
49488;SDS011;35382;51.484;11.476;2024-02-14T12:42:53;7.68;;;3.03;;
49488;SDS011;35382;51.484;11.476;2024-02-14T12:45:18;7.18;;;2.50;;
49488;SDS011;35382;51.484;11.476;2024-02-14T12:47:44;5.32;;;2.60;;
49488;SDS011;35382;51.484;11.476;2024-02-14T12:50:09;7.93;;;2.92;;
49488;SDS011;35382;51.484;11.476;2024-02-14T12:52:34;4.20;;;2.53;;
49488;SDS011;35382;51.484;11.476;2024-02-14T12:55:00;6.82;;;2.80;;
49488;SDS011;35382;51.484;11.476;2024-02-14T12:57:25;7.82;;;2.90;;
49488;SDS011;35382;51.484;11.476;2024-02-14T12:59:51;6.72;;;2.83;;
49488;SDS011;35382;51.484;11.476;2024-02-14T13:02:16;6.53;;;2.80;;
49488;SDS011;35382;51.484;11.476;2024-02-14T13:04:42;6.05;;;2.95;;
49488;SDS011;35382;51.484;11.476;2024-02-14T13:07:08;5.97;;;2.90;;
49488;SDS011;35382;51.484;11.476;2024-02-14T13:09:33;5.75;;;2.40;;
49488;SDS011;35382;51.484;11.476;2024-02-14T13:11:58;6.72;;;3.28;;
49488;SDS011;35382;51.484;11.476;2024-02-14T13:14:24;4.72;;;2.83;;
49488;SDS011;35382;51.484;11.476;2024-02-14T13:16:49;7.13;;;3.38;;
49488;SDS011;35382;51.484;11.476;2024-02-14T13:19:14;9.18;;;3.72;;
49488;SDS011;35382;51.484;11.476;2024-02-14T13:21:40;7.82;;;3.30;;
49488;SDS011;35382;51.484;11.476;2024-02-14T13:24:05;6.70;;;3.20;;
49488;SDS011;35382;51.484;11.476;2024-02-14T13:26:30;7.35;;;3.15;;
49488;SDS011;35382;51.484;11.476;2024-02-14T13:28:56;5.97;;;3.20;;
49488;SDS011;35382;51.484;11.476;2024-02-14T13:31:21;6.15;;;2.95;;
49488;SDS011;35382;51.484;11.476;2024-02-14T13:33:47;6.18;;;3.42;;
49488;SDS011;35382;51.484;11.476;2024-02-14T13:36:12;6.07;;;3.30;;
49488;SDS011;35382;51.484;11.476;2024-02-14T13:38:37;6.85;;;3.50;;
49488;SDS011;35382;51.484;11.476;2024-02-14T13:41:03;9.57;;;3.10;;
49488;SDS011;35382;51.484;11.476;2024-02-14T13:43:28;5.70;;;3.42;;
49488;SDS011;35382;51.484;11.476;2024-02-14T13:45:54;6.18;;;2.97;;
49488;SDS011;35382;51.484;11.476;2024-02-14T13:48:19;6.22;;;3.03;;
49488;SDS011;35382;51.484;11.476;2024-02-14T13:50:44;8.93;;;3.33;;
49488;SDS011;35382;51.484;11.476;2024-02-14T13:53:10;5.72;;;3.05;;
49488;SDS011;35382;51.484;11.476;2024-02-14T13:55:35;6.20;;;3.40;;
49488;SDS011;35382;51.484;11.476;2024-02-14T13:58:01;7.80;;;3.35;;
49488;SDS011;35382;51.484;11.476;2024-02-14T14:00:26;6.25;;;3.25;;
49488;SDS011;35382;51.484;11.476;2024-02-14T14:02:52;7.40;;;3.15;;
49488;SDS011;35382;51.484;11.476;2024-02-14T14:05:17;5.78;;;3.30;;
49488;SDS011;35382;51.484;11.476;2024-02-14T14:07:42;7.57;;;2.97;;
49488;SDS011;35382;51.484;11.476;2024-02-14T14:10:08;6.18;;;3.28;;
49488;SDS011;35382;51.484;11.476;2024-02-14T14:12:34;6.50;;;3.40;;
49488;SDS011;35382;51.484;11.476;2024-02-14T14:15:00;5.50;;;2.90;;
49488;SDS011;35382;51.484;11.476;2024-02-14T14:17:26;8.23;;;3.13;;
49488;SDS011;35382;51.484;11.476;2024-02-14T14:19:52;6.25;;;3.38;;
49488;SDS011;35382;51.484;11.476;2024-02-14T14:22:18;5.32;;;3.00;;
49488;SDS011;35382;51.484;11.476;2024-02-14T14:24:43;6.57;;;3.10;;
49488;SDS011;35382;51.484;11.476;2024-02-14T14:27:09;5.07;;;2.90;;